sensor_id;sensor_type;location;lat;lon;timestamp;pressure;altitude;pressure_sealevel;temperature;humidity
56456;BME280;42354;53.218;6.564;2023-05-10T00:02:22;47223.28;;;-142.92;100.00
56456;BME280;42354;53.218;6.564;2023-05-10T00:04:48;47227.38;;;-142.92;100.00
56456;BME280;42354;53.218;6.564;2023-05-10T00:07:13;47221.22;;;-142.92;100.00
56456;BME280;42354;53.218;6.564;2023-05-10T00:09:38;47221.22;;;-142.92;100.00
56456;BME280;42354;53.218;6.564;2023-05-10T00:12:05;47219.19;;;-142.92;100.00
56456;BME280;42354;53.218;6.564;2023-05-10T00:14:30;47217.13;;;-142.92;100.00
56456;BME280;42354;53.218;6.564;2023-05-10T00:16:56;47225.34;;;-142.92;100.00
56456;BME280;42354;53.218;6.564;2023-05-10T00:19:21;47223.28;;;-142.92;100.00
56456;BME280;42354;53.218;6.564;2023-05-10T00:21:46;47223.28;;;-142.92;100.00
56456;BME280;42354;53.218;6.564;2023-05-10T00:24:12;47225.34;;;-142.92;100.00
56456;BME280;42354;53.218;6.564;2023-05-10T00:26:37;47227.38;;;-142.92;100.00
56456;BME280;42354;53.218;6.564;2023-05-10T00:29:03;47225.34;;;-142.92;100.00
56456;BME280;42354;53.218;6.564;2023-05-10T00:31:28;47225.34;;;-142.92;100.00
56456;BME280;42354;53.218;6.564;2023-05-10T00:33:54;47225.34;;;-142.92;100.00
56456;BME280;42354;53.218;6.564;2023-05-10T00:36:19;47225.34;;;-142.92;100.00
56456;BME280;42354;53.218;6.564;2023-05-10T00:38:45;47223.28;;;-142.92;100.00
56456;BME280;42354;53.218;6.564;2023-05-10T00:41:11;47227.38;;;-142.92;100.00
56456;BME280;42354;53.218;6.564;2023-05-10T00:43:36;47225.34;;;-142.92;100.00
56456;BME280;42354;53.218;6.564;2023-05-10T00:46:01;47227.38;;;-142.92;100.00
56456;BME280;42354;53.218;6.564;2023-05-10T00:48:28;47231.50;;;-142.92;100.00
56456;BME280;42354;53.218;6.564;2023-05-10T00:50:54;47233.53;;;-142.92;100.00
56456;BME280;42354;53.218;6.564;2023-05-10T00:53:19;47229.44;;;-142.92;100.00
56456;BME280;42354;53.218;6.564;2023-05-10T00:55:45;47227.38;;;-142.92;100.00
56456;BME280;42354;53.218;6.564;2023-05-10T00:58:11;47225.34;;;-142.92;100.00
56456;BME280;42354;53.218;6.564;2023-05-10T01:00:37;47219.19;;;-142.92;100.00
56456;BME280;42354;53.218;6.564;2023-05-10T01:03:06;47221.22;;;-142.92;100.00
56456;BME280;42354;53.218;6.564;2023-05-10T01:05:31;47221.22;;;-142.92;100.00
56456;BME280;42354;53.218;6.564;2023-05-10T01:07:57;47225.34;;;-142.92;100.00
56456;BME280;42354;53.218;6.564;2023-05-10T01:10:22;47229.44;;;-142.92;100.00
56456;BME280;42354;53.218;6.564;2023-05-10T01:12:48;47223.28;;;-142.92;100.00
56456;BME280;42354;53.218;6.564;2023-05-10T01:15:14;47225.34;;;-142.92;100.00
56456;BME280;42354;53.218;6.564;2023-05-10T01:17:42;47231.50;;;-142.92;100.00
56456;BME280;42354;53.218;6.564;2023-05-10T01:20:09;47231.50;;;-142.92;100.00
56456;BME280;42354;53.218;6.564;2023-05-10T01:26:13;47237.66;;;-142.92;100.00
56456;BME280;42354;53.218;6.564;2023-05-10T01:28:59;47241.75;;;-142.92;100.00
56456;BME280;42354;53.218;6.564;2023-05-10T01:37:33;47239.69;;;-142.92;100.00
56456;BME280;42354;53.218;6.564;2023-05-10T01:40:10;47241.75;;;-142.92;100.00
56456;BME280;42354;53.218;6.564;2023-05-10T01:42:47;47241.75;;;-142.92;100.00
56456;BME280;42354;53.218;6.564;2023-05-10T01:46:20;47239.69;;;-142.92;100.00
56456;BME280;42354;53.218;6.564;2023-05-10T01:48:14;47237.66;;;-142.92;100.00
56456;BME280;42354;53.218;6.564;2023-05-10T01:50:43;47243.81;;;-142.92;100.00
56456;BME280;42354;53.218;6.564;2023-05-10T01:53:12;47237.66;;;-142.92;100.00
56456;BME280;42354;53.218;6.564;2023-05-10T01:55:46;47241.75;;;-142.92;100.00
56456;BME280;42354;53.218;6.564;2023-05-10T01:58:19;47237.66;;;-142.92;100.00
56456;BME280;42354;53.218;6.564;2023-05-10T02:00:46;47235.59;;;-142.92;100.00
56456;BME280;42354;53.218;6.564;2023-05-10T02:03:13;47241.75;;;-142.92;100.00
56456;BME280;42354;53.218;6.564;2023-05-10T02:05:41;47241.75;;;-142.92;100.00
56456;BME280;42354;53.218;6.564;2023-05-10T02:08:09;47241.75;;;-142.92;100.00
56456;BME280;42354;53.218;6.564;2023-05-10T02:10:36;47241.75;;;-142.92;100.00
56456;BME280;42354;53.218;6.564;2023-05-10T02:13:03;47239.69;;;-142.92;100.00
56456;BME280;42354;53.218;6.564;2023-05-10T02:15:29;47239.69;;;-142.92;100.00
56456;BME280;42354;53.218;6.564;2023-05-10T02:17:56;47243.81;;;-142.92;100.00
56456;BME280;42354;53.218;6.564;2023-05-10T02:20:23;47239.69;;;-142.92;100.00
56456;BME280;42354;53.218;6.564;2023-05-10T02:22:51;47245.84;;;-142.92;100.00
56456;BME280;42354;53.218;6.564;2023-05-10T02:25:19;47241.75;;;-142.92;100.00
56456;BME280;42354;53.218;6.564;2023-05-10T02:27:47;47241.75;;;-142.92;100.00
56456;BME280;42354;53.218;6.564;2023-05-10T02:30:14;47239.69;;;-142.92;100.00
56456;BME280;42354;53.218;6.564;2023-05-10T02:32:40;47239.69;;;-142.92;100.00
56456;BME280;42354;53.218;6.564;2023-05-10T02:35:07;47237.66;;;-142.92;100.00
56456;BME280;42354;53.218;6.564;2023-05-10T02:37:34;47239.69;;;-142.92;100.00
56456;BME280;42354;53.218;6.564;2023-05-10T02:40:02;47249.97;;;-142.92;100.00
56456;BME280;42354;53.218;6.564;2023-05-10T02:42:33;47243.81;;;-142.92;100.00
56456;BME280;42354;53.218;6.564;2023-05-10T02:45:01;47243.81;;;-142.92;100.00
56456;BME280;42354;53.218;6.564;2023-05-10T02:47:30;47247.91;;;-142.92;100.00
56456;BME280;42354;53.218;6.564;2023-05-10T02:49:56;47239.69;;;-142.92;100.00
56456;BME280;42354;53.218;6.564;2023-05-10T02:52:25;47247.91;;;-142.92;100.00
56456;BME280;42354;53.218;6.564;2023-05-10T02:54:55;47245.84;;;-142.92;100.00
56456;BME280;42354;53.218;6.564;2023-05-10T02:57:26;47249.97;;;-142.92;100.00
56456;BME280;42354;53.218;6.564;2023-05-10T02:59:52;47243.81;;;-142.92;100.00
56456;BME280;42354;53.218;6.564;2023-05-10T03:02:18;47241.75;;;-142.92;100.00
56456;BME280;42354;53.218;6.564;2023-05-10T03:04:43;47245.84;;;-142.92;100.00
56456;BME280;42354;53.218;6.564;2023-05-10T03:07:09;47247.91;;;-142.92;100.00
56456;BME280;42354;53.218;6.564;2023-05-10T03:09:35;47245.84;;;-142.92;100.00
56456;BME280;42354;53.218;6.564;2023-05-10T03:17:15;47247.91;;;-142.92;100.00
56456;BME280;42354;53.218;6.564;2023-05-10T03:19:58;47249.97;;;-142.92;100.00
56456;BME280;42354;53.218;6.564;2023-05-10T03:22:40;47249.97;;;-142.92;100.00
56456;BME280;42354;53.218;6.564;2023-05-10T03:25:08;47252.00;;;-142.92;100.00
56456;BME280;42354;53.218;6.564;2023-05-10T03:27:38;47243.81;;;-142.92;100.00
56456;BME280;42354;53.218;6.564;2023-05-10T03:30:05;47243.81;;;-142.92;100.00
56456;BME280;42354;53.218;6.564;2023-05-10T03:32:31;47245.84;;;-142.92;100.00
56456;BME280;42354;53.218;6.564;2023-05-10T03:34:59;47252.00;;;-142.92;100.00
56456;BME280;42354;53.218;6.564;2023-05-10T03:37:24;47249.97;;;-142.92;100.00
56456;BME280;42354;53.218;6.564;2023-05-10T03:39:50;47243.81;;;-142.92;100.00
56456;BME280;42354;53.218;6.564;2023-05-10T03:42:15;47249.97;;;-142.92;100.00
56456;BME280;42354;53.218;6.564;2023-05-10T03:44:42;47245.84;;;-142.92;100.00
56456;BME280;42354;53.218;6.564;2023-05-10T03:47:08;47249.97;;;-142.92;100.00
56456;BME280;42354;53.218;6.564;2023-05-10T03:49:33;47247.91;;;-142.92;100.00
56456;BME280;42354;53.218;6.564;2023-05-10T03:51:59;47243.81;;;-142.92;100.00
56456;BME280;42354;53.218;6.564;2023-05-10T03:54:24;47247.91;;;-142.92;100.00
56456;BME280;42354;53.218;6.564;2023-05-10T03:56:49;47249.97;;;-142.92;100.00
56456;BME280;42354;53.218;6.564;2023-05-10T03:59:15;47254.06;;;-142.92;100.00
56456;BME280;42354;53.218;6.564;2023-05-10T04:01:40;47243.81;;;-142.92;100.00
56456;BME280;42354;53.218;6.564;2023-05-10T04:04:05;47245.84;;;-142.92;100.00
56456;BME280;42354;53.218;6.564;2023-05-10T04:06:31;47249.97;;;-142.92;100.00
56456;BME280;42354;53.218;6.564;2023-05-10T04:08:57;47247.91;;;-142.92;100.00
56456;BME280;42354;53.218;6.564;2023-05-10T04:11:25;47249.97;;;-142.92;100.00
56456;BME280;42354;53.218;6.564;2023-05-10T04:13:50;47249.97;;;-142.92;100.00
56456;BME280;42354;53.218;6.564;2023-05-10T04:16:16;47249.97;;;-142.92;100.00
56456;BME280;42354;53.218;6.564;2023-05-10T04:18:41;47252.00;;;-142.92;100.00
56456;BME280;42354;53.218;6.564;2023-05-10T04:21:13;47249.97;;;-142.92;100.00
56456;BME280;42354;53.218;6.564;2023-05-10T04:23:39;47245.84;;;-142.92;100.00
56456;BME280;42354;53.218;6.564;2023-05-10T04:26:04;47247.91;;;-142.92;100.00
56456;BME280;42354;53.218;6.564;2023-05-10T04:28:30;47252.00;;;-142.92;100.00
56456;BME280;42354;53.218;6.564;2023-05-10T04:31:05;47249.97;;;-142.92;100.00
56456;BME280;42354;53.218;6.564;2023-05-10T04:33:31;47245.84;;;-142.92;100.00
56456;BME280;42354;53.218;6.564;2023-05-10T04:35:57;47245.84;;;-142.92;100.00
56456;BME280;42354;53.218;6.564;2023-05-10T04:38:23;47245.84;;;-142.92;100.00
56456;BME280;42354;53.218;6.564;2023-05-10T04:40:48;47254.06;;;-142.92;100.00
56456;BME280;42354;53.218;6.564;2023-05-10T04:43:13;47247.91;;;-142.92;100.00
56456;BME280;42354;53.218;6.564;2023-05-10T04:45:39;47243.81;;;-142.92;100.00
56456;BME280;42354;53.218;6.564;2023-05-10T04:48:04;47249.97;;;-142.92;100.00
56456;BME280;42354;53.218;6.564;2023-05-10T04:50:30;47252.00;;;-142.92;100.00
56456;BME280;42354;53.218;6.564;2023-05-10T04:52:55;47247.91;;;-142.92;100.00
56456;BME280;42354;53.218;6.564;2023-05-10T04:55:21;47243.81;;;-142.92;100.00
56456;BME280;42354;53.218;6.564;2023-05-10T04:57:46;47249.97;;;-142.92;100.00
56456;BME280;42354;53.218;6.564;2023-05-10T05:00:12;47243.81;;;-142.92;100.00
56456;BME280;42354;53.218;6.564;2023-05-10T05:02:38;47245.84;;;-142.92;100.00
56456;BME280;42354;53.218;6.564;2023-05-10T05:05:03;47245.84;;;-142.92;100.00
56456;BME280;42354;53.218;6.564;2023-05-10T05:07:29;47241.75;;;-142.92;100.00
56456;BME280;42354;53.218;6.564;2023-05-10T05:09:55;47247.91;;;-142.92;100.00
56456;BME280;42354;53.218;6.564;2023-05-10T05:12:21;47243.81;;;-142.92;100.00
56456;BME280;42354;53.218;6.564;2023-05-10T05:14:46;47243.81;;;-142.92;100.00
56456;BME280;42354;53.218;6.564;2023-05-10T05:17:11;47243.81;;;-142.92;100.00
56456;BME280;42354;53.218;6.564;2023-05-10T05:19:39;47245.84;;;-142.92;100.00
56456;BME280;42354;53.218;6.564;2023-05-10T05:22:06;47243.81;;;-142.92;100.00
56456;BME280;42354;53.218;6.564;2023-05-10T05:24:35;47249.97;;;-142.92;100.00
56456;BME280;42354;53.218;6.564;2023-05-10T05:27:01;47245.84;;;-142.92;100.00
56456;BME280;42354;53.218;6.564;2023-05-10T05:29:27;47249.97;;;-142.92;100.00
56456;BME280;42354;53.218;6.564;2023-05-10T05:31:52;47241.75;;;-142.92;100.00
56456;BME280;42354;53.218;6.564;2023-05-10T05:34:17;47241.75;;;-142.92;100.00
56456;BME280;42354;53.218;6.564;2023-05-10T05:36:43;47245.84;;;-142.92;100.00
56456;BME280;42354;53.218;6.564;2023-05-10T05:39:08;47245.84;;;-142.92;100.00
56456;BME280;42354;53.218;6.564;2023-05-10T05:41:33;47245.84;;;-142.92;100.00
56456;BME280;42354;53.218;6.564;2023-05-10T05:43:59;47245.84;;;-142.92;100.00
56456;BME280;42354;53.218;6.564;2023-05-10T05:46:24;47249.97;;;-142.92;100.00
56456;BME280;42354;53.218;6.564;2023-05-10T05:48:50;47245.84;;;-142.92;100.00
56456;BME280;42354;53.218;6.564;2023-05-10T05:51:15;47241.75;;;-142.92;100.00
56456;BME280;42354;53.218;6.564;2023-05-10T05:53:40;47243.81;;;-142.92;100.00
56456;BME280;42354;53.218;6.564;2023-05-10T05:56:06;47239.69;;;-142.92;100.00
56456;BME280;42354;53.218;6.564;2023-05-10T05:58:31;47241.75;;;-142.92;100.00
56456;BME280;42354;53.218;6.564;2023-05-10T06:00:56;47247.91;;;-142.92;100.00
56456;BME280;42354;53.218;6.564;2023-05-10T06:03:22;47245.84;;;-142.92;100.00
56456;BME280;42354;53.218;6.564;2023-05-10T06:05:47;47243.81;;;-142.92;100.00
56456;BME280;42354;53.218;6.564;2023-05-10T06:08:13;47245.84;;;-142.92;100.00
56456;BME280;42354;53.218;6.564;2023-05-10T06:10:38;47252.00;;;-142.92;100.00
56456;BME280;42354;53.218;6.564;2023-05-10T06:13:04;47245.84;;;-142.92;100.00
56456;BME280;42354;53.218;6.564;2023-05-10T06:15:29;47237.66;;;-142.92;100.00
56456;BME280;42354;53.218;6.564;2023-05-10T06:17:55;47243.81;;;-142.92;100.00
56456;BME280;42354;53.218;6.564;2023-05-10T06:20:20;47245.84;;;-142.92;100.00
56456;BME280;42354;53.218;6.564;2023-05-10T06:22:46;47245.84;;;-142.92;100.00
56456;BME280;42354;53.218;6.564;2023-05-10T06:25:13;47243.81;;;-142.92;100.00
56456;BME280;42354;53.218;6.564;2023-05-10T06:27:39;47243.81;;;-142.92;100.00
56456;BME280;42354;53.218;6.564;2023-05-10T06:30:05;47241.75;;;-142.92;100.00
56456;BME280;42354;53.218;6.564;2023-05-10T06:32:30;47245.84;;;-142.92;100.00
56456;BME280;42354;53.218;6.564;2023-05-10T06:34:56;47239.69;;;-142.92;100.00
56456;BME280;42354;53.218;6.564;2023-05-10T06:37:21;47245.84;;;-142.92;100.00
56456;BME280;42354;53.218;6.564;2023-05-10T06:39:46;47247.91;;;-142.92;100.00
56456;BME280;42354;53.218;6.564;2023-05-10T06:42:12;47243.81;;;-142.92;100.00
56456;BME280;42354;53.218;6.564;2023-05-10T06:44:37;47245.84;;;-142.92;100.00
56456;BME280;42354;53.218;6.564;2023-05-10T06:47:03;47245.84;;;-142.92;100.00
56456;BME280;42354;53.218;6.564;2023-05-10T06:49:28;47245.84;;;-142.92;100.00
56456;BME280;42354;53.218;6.564;2023-05-10T06:51:55;47241.75;;;-142.92;100.00
56456;BME280;42354;53.218;6.564;2023-05-10T06:54:21;47241.75;;;-142.92;100.00
56456;BME280;42354;53.218;6.564;2023-05-10T06:56:46;47237.66;;;-142.92;100.00
56456;BME280;42354;53.218;6.564;2023-05-10T06:59:11;47245.84;;;-142.92;100.00
56456;BME280;42354;53.218;6.564;2023-05-10T07:01:38;47241.75;;;-142.92;100.00
56456;BME280;42354;53.218;6.564;2023-05-10T07:04:04;47241.75;;;-142.92;100.00
56456;BME280;42354;53.218;6.564;2023-05-10T07:06:29;47241.75;;;-142.92;100.00
56456;BME280;42354;53.218;6.564;2023-05-10T07:08:54;47243.81;;;-142.92;100.00
56456;BME280;42354;53.218;6.564;2023-05-10T07:11:20;47245.84;;;-142.92;100.00
56456;BME280;42354;53.218;6.564;2023-05-10T07:13:45;47243.81;;;-142.92;100.00
56456;BME280;42354;53.218;6.564;2023-05-10T07:16:11;47243.81;;;-142.92;100.00
56456;BME280;42354;53.218;6.564;2023-05-10T07:18:37;47241.75;;;-142.92;100.00
56456;BME280;42354;53.218;6.564;2023-05-10T07:21:02;47247.91;;;-142.92;100.00
56456;BME280;42354;53.218;6.564;2023-05-10T07:23:28;47245.84;;;-142.92;100.00
56456;BME280;42354;53.218;6.564;2023-05-10T07:25:53;47249.97;;;-142.92;100.00
56456;BME280;42354;53.218;6.564;2023-05-10T07:28:19;47241.75;;;-142.92;100.00
56456;BME280;42354;53.218;6.564;2023-05-10T07:30:45;47245.84;;;-142.92;100.00
56456;BME280;42354;53.218;6.564;2023-05-10T07:33:12;47241.75;;;-142.92;100.00
56456;BME280;42354;53.218;6.564;2023-05-10T07:35:39;47247.91;;;-142.92;100.00
56456;BME280;42354;53.218;6.564;2023-05-10T07:38:04;47245.84;;;-142.92;100.00
56456;BME280;42354;53.218;6.564;2023-05-10T07:40:31;47243.81;;;-142.92;100.00
56456;BME280;42354;53.218;6.564;2023-05-10T07:42:56;47252.00;;;-142.92;100.00
56456;BME280;42354;53.218;6.564;2023-05-10T07:45:22;47243.81;;;-142.92;100.00
56456;BME280;42354;53.218;6.564;2023-05-10T07:47:48;47245.84;;;-142.92;100.00
56456;BME280;42354;53.218;6.564;2023-05-10T07:50:13;47243.81;;;-142.92;100.00
56456;BME280;42354;53.218;6.564;2023-05-10T07:52:39;47241.75;;;-142.92;100.00
56456;BME280;42354;53.218;6.564;2023-05-10T07:55:06;47241.75;;;-142.92;100.00
56456;BME280;42354;53.218;6.564;2023-05-10T07:57:35;47245.84;;;-142.92;100.00
56456;BME280;42354;53.218;6.564;2023-05-10T08:00:02;47245.84;;;-142.92;100.00
56456;BME280;42354;53.218;6.564;2023-05-10T08:02:27;47245.84;;;-142.92;100.00
56456;BME280;42354;53.218;6.564;2023-05-10T08:04:53;47243.81;;;-142.92;100.00
56456;BME280;42354;53.218;6.564;2023-05-10T08:07:18;47247.91;;;-142.92;100.00
56456;BME280;42354;53.218;6.564;2023-05-10T08:09:44;47252.00;;;-142.92;100.00
56456;BME280;42354;53.218;6.564;2023-05-10T08:12:09;47245.84;;;-142.92;100.00
56456;BME280;42354;53.218;6.564;2023-05-10T08:14:35;47243.81;;;-142.92;100.00
56456;BME280;42354;53.218;6.564;2023-05-10T08:17:02;47247.91;;;-142.92;100.00
56456;BME280;42354;53.218;6.564;2023-05-10T08:19:28;47249.97;;;-142.92;100.00
56456;BME280;42354;53.218;6.564;2023-05-10T08:21:53;47241.75;;;-142.92;100.00
56456;BME280;42354;53.218;6.564;2023-05-10T08:24:21;47243.81;;;-142.92;100.00
56456;BME280;42354;53.218;6.564;2023-05-10T08:26:46;47245.84;;;-142.92;100.00
56456;BME280;42354;53.218;6.564;2023-05-10T08:29:13;47252.00;;;-142.92;100.00
56456;BME280;42354;53.218;6.564;2023-05-10T08:31:38;47243.81;;;-142.92;100.00
56456;BME280;42354;53.218;6.564;2023-05-10T08:34:03;47241.75;;;-142.92;100.00
56456;BME280;42354;53.218;6.564;2023-05-10T08:36:29;47243.81;;;-142.92;100.00
56456;BME280;42354;53.218;6.564;2023-05-10T08:38:55;47247.91;;;-142.92;100.00
56456;BME280;42354;53.218;6.564;2023-05-10T08:41:21;47252.00;;;-142.92;100.00
56456;BME280;42354;53.218;6.564;2023-05-10T08:43:47;47249.97;;;-142.92;100.00
56456;BME280;42354;53.218;6.564;2023-05-10T08:46:17;47252.00;;;-142.92;100.00
56456;BME280;42354;53.218;6.564;2023-05-10T08:48:44;47249.97;;;-142.92;100.00
56456;BME280;42354;53.218;6.564;2023-05-10T08:51:14;47249.97;;;-142.92;100.00
56456;BME280;42354;53.218;6.564;2023-05-10T08:53:40;47247.91;;;-142.92;100.00
56456;BME280;42354;53.218;6.564;2023-05-10T08:56:06;47247.91;;;-142.92;100.00
56456;BME280;42354;53.218;6.564;2023-05-10T08:58:31;47245.84;;;-142.92;100.00
56456;BME280;42354;53.218;6.564;2023-05-10T09:00:57;47247.91;;;-142.92;100.00
56456;BME280;42354;53.218;6.564;2023-05-10T09:03:24;47245.84;;;-142.92;100.00
56456;BME280;42354;53.218;6.564;2023-05-10T09:05:50;47241.75;;;-142.92;100.00
56456;BME280;42354;53.218;6.564;2023-05-10T09:08:15;47245.84;;;-142.92;100.00
56456;BME280;42354;53.218;6.564;2023-05-10T09:10:45;47247.91;;;-142.92;100.00
56456;BME280;42354;53.218;6.564;2023-05-10T09:13:14;47249.97;;;-142.92;100.00
56456;BME280;42354;53.218;6.564;2023-05-10T09:15:40;47249.97;;;-142.92;100.00
56456;BME280;42354;53.218;6.564;2023-05-10T09:18:06;47249.97;;;-142.92;100.00
56456;BME280;42354;53.218;6.564;2023-05-10T09:20:31;47249.97;;;-142.92;100.00
56456;BME280;42354;53.218;6.564;2023-05-10T09:22:57;47249.97;;;-142.92;100.00
56456;BME280;42354;53.218;6.564;2023-05-10T09:25:22;47252.00;;;-142.92;100.00
56456;BME280;42354;53.218;6.564;2023-05-10T09:27:48;47252.00;;;-142.92;100.00
56456;BME280;42354;53.218;6.564;2023-05-10T09:30:26;47249.97;;;-142.92;100.00
56456;BME280;42354;53.218;6.564;2023-05-10T09:32:53;47249.97;;;-142.92;100.00
56456;BME280;42354;53.218;6.564;2023-05-10T09:35:20;47249.97;;;-142.92;100.00
56456;BME280;42354;53.218;6.564;2023-05-10T09:37:49;47247.91;;;-142.92;100.00
56456;BME280;42354;53.218;6.564;2023-05-10T09:40:17;47239.69;;;-142.92;100.00
56456;BME280;42354;53.218;6.564;2023-05-10T09:42:52;47217.13;;;-142.92;100.00
56456;BME280;42354;53.218;6.564;2023-05-10T09:45:18;47219.19;;;-142.92;100.00
56456;BME280;42354;53.218;6.564;2023-05-10T09:47:43;47217.13;;;-142.92;100.00
56456;BME280;42354;53.218;6.564;2023-05-10T09:50:09;47215.06;;;-142.92;100.00
56456;BME280;42354;53.218;6.564;2023-05-10T09:53:04;47221.22;;;-142.92;100.00
56456;BME280;42354;53.218;6.564;2023-05-10T09:58:01;47231.50;;;-142.92;100.00
56456;BME280;42354;53.218;6.564;2023-05-10T10:00:27;47223.28;;;-142.92;100.00
56456;BME280;42354;53.218;6.564;2023-05-10T10:02:58;47213.03;;;-142.92;100.00
56456;BME280;42354;53.218;6.564;2023-05-10T10:05:34;47116.56;;;-142.92;100.00
56456;BME280;42354;53.218;6.564;2023-05-10T10:08:02;47073.47;;;-142.92;100.00
56456;BME280;42354;53.218;6.564;2023-05-10T10:10:28;46845.69;;;-142.92;100.00
56456;BME280;42354;53.218;6.564;2023-05-10T10:12:54;46913.41;;;-142.92;100.00
56456;BME280;42354;53.218;6.564;2023-05-10T10:15:23;47016.00;;;-142.92;100.00
56456;BME280;42354;53.218;6.564;2023-05-10T10:17:50;47016.00;;;-142.92;100.00
56456;BME280;42354;53.218;6.564;2023-05-10T10:20:17;46995.50;;;-142.92;100.00
56456;BME280;42354;53.218;6.564;2023-05-10T10:22:43;47018.06;;;-142.92;100.00
56456;BME280;42354;53.218;6.564;2023-05-10T10:25:10;47016.00;;;-142.92;100.00
56456;BME280;42354;53.218;6.564;2023-05-10T10:30:49;47003.69;;;-142.92;100.00
56456;BME280;42354;53.218;6.564;2023-05-10T10:33:40;47018.06;;;-142.92;100.00
56456;BME280;42354;53.218;6.564;2023-05-10T10:36:09;47007.81;;;-142.92;100.00
56456;BME280;42354;53.218;6.564;2023-05-10T10:41:36;46999.59;;;-142.92;100.00
56456;BME280;42354;53.218;6.564;2023-05-10T10:52:27;46977.03;;;-142.92;100.00
56456;BME280;42354;53.218;6.564;2023-05-10T10:57:24;46979.06;;;-142.92;100.00
56456;BME280;42354;53.218;6.564;2023-05-10T10:59:52;46995.50;;;-142.92;100.00
56456;BME280;42354;53.218;6.564;2023-05-10T11:07:57;46985.22;;;-142.92;100.00
56456;BME280;42354;53.218;6.564;2023-05-10T11:10:25;47007.81;;;-142.92;100.00
56456;BME280;42354;53.218;6.564;2023-05-10T11:13:11;46985.22;;;-142.92;100.00
56456;BME280;42354;53.218;6.564;2023-05-10T11:15:43;47016.00;;;-142.92;100.00
56456;BME280;42354;53.218;6.564;2023-05-10T11:18:31;46991.38;;;-142.92;100.00
56456;BME280;42354;53.218;6.564;2023-05-10T11:21:00;47001.66;;;-142.92;100.00
56456;BME280;42354;53.218;6.564;2023-05-10T11:26:08;46987.28;;;-142.92;100.00
56456;BME280;42354;53.218;6.564;2023-05-10T11:28:40;46999.59;;;-142.92;100.00
56456;BME280;42354;53.218;6.564;2023-05-10T11:31:06;47007.81;;;-142.92;100.00
56456;BME280;42354;53.218;6.564;2023-05-10T11:33:42;47009.84;;;-142.92;100.00
56456;BME280;42354;53.218;6.564;2023-05-10T11:36:11;47005.75;;;-142.92;99.44
56456;BME280;42354;53.218;6.564;2023-05-10T11:38:36;47009.84;;;-142.92;99.24
56456;BME280;42354;53.218;6.564;2023-05-10T11:41:02;46999.59;;;-142.92;99.66
56456;BME280;42354;53.218;6.564;2023-05-10T11:43:27;47005.75;;;-142.92;98.58
56456;BME280;42354;53.218;6.564;2023-05-10T11:45:55;47022.16;;;-142.92;97.89
56456;BME280;42354;53.218;6.564;2023-05-10T11:48:21;46991.38;;;-142.92;99.06
56456;BME280;42354;53.218;6.564;2023-05-10T11:50:49;47003.69;;;-142.92;98.36
56456;BME280;42354;53.218;6.564;2023-05-10T11:53:14;46995.50;;;-142.92;97.72
56456;BME280;42354;53.218;6.564;2023-05-10T11:55:40;46995.50;;;-142.92;94.29
56456;BME280;42354;53.218;6.564;2023-05-10T11:58:05;47001.66;;;-142.92;93.84
56456;BME280;42354;53.218;6.564;2023-05-10T12:00:31;46999.59;;;-142.92;94.90
56456;BME280;42354;53.218;6.564;2023-05-10T12:02:56;46997.53;;;-142.92;96.76
56456;BME280;42354;53.218;6.564;2023-05-10T12:05:22;47007.81;;;-142.92;97.03
56456;BME280;42354;53.218;6.564;2023-05-10T12:07:48;47003.69;;;-142.92;97.62
56456;BME280;42354;53.218;6.564;2023-05-10T12:10:13;46991.38;;;-142.92;97.48
56456;BME280;42354;53.218;6.564;2023-05-10T12:12:46;46981.13;;;-142.92;98.53
56456;BME280;42354;53.218;6.564;2023-05-10T12:15:22;46993.44;;;-142.92;98.75
56456;BME280;42354;53.218;6.564;2023-05-10T12:17:49;46993.44;;;-142.92;100.00
56456;BME280;42354;53.218;6.564;2023-05-10T12:20:20;46999.59;;;-142.92;100.00
56456;BME280;42354;53.218;6.564;2023-05-10T12:22:51;47001.66;;;-142.92;100.00
56456;BME280;42354;53.218;6.564;2023-05-10T12:25:18;47020.13;;;-142.92;100.00
56456;BME280;42354;53.218;6.564;2023-05-10T12:27:48;47003.69;;;-142.92;100.00
56456;BME280;42354;53.218;6.564;2023-05-10T12:30:25;47003.69;;;-142.92;100.00
56456;BME280;42354;53.218;6.564;2023-05-10T12:32:51;46995.50;;;-142.92;100.00
56456;BME280;42354;53.218;6.564;2023-05-10T12:35:22;46997.53;;;-142.92;100.00
56456;BME280;42354;53.218;6.564;2023-05-10T12:37:50;46989.34;;;-142.92;100.00
56456;BME280;42354;53.218;6.564;2023-05-10T12:40:16;46999.59;;;-142.92;100.00
56456;BME280;42354;53.218;6.564;2023-05-10T12:42:42;46997.53;;;-142.92;100.00
56456;BME280;42354;53.218;6.564;2023-05-10T12:45:34;46995.50;;;-142.92;100.00
56456;BME280;42354;53.218;6.564;2023-05-10T12:48:00;47016.00;;;-142.92;100.00
56456;BME280;42354;53.218;6.564;2023-05-10T12:50:25;47011.91;;;-142.92;99.48
56456;BME280;42354;53.218;6.564;2023-05-10T12:52:52;46987.28;;;-142.92;99.43
56456;BME280;42354;53.218;6.564;2023-05-10T12:55:18;47013.97;;;-142.92;98.74
56456;BME280;42354;53.218;6.564;2023-05-10T12:57:44;46989.34;;;-142.92;98.98
56456;BME280;42354;53.218;6.564;2023-05-10T13:00:10;46991.38;;;-142.92;97.89
56456;BME280;42354;53.218;6.564;2023-05-10T13:02:36;46999.59;;;-142.92;98.83
56456;BME280;42354;53.218;6.564;2023-05-10T13:05:01;47003.69;;;-142.92;98.16
56456;BME280;42354;53.218;6.564;2023-05-10T13:07:26;47005.75;;;-142.92;97.37
56456;BME280;42354;53.218;6.564;2023-05-10T13:09:53;47003.69;;;-142.92;96.70
56456;BME280;42354;53.218;6.564;2023-05-10T13:12:22;46997.53;;;-142.92;94.80
56456;BME280;42354;53.218;6.564;2023-05-10T13:14:47;47003.69;;;-142.92;94.72